This is the latest recevied weather packets stored in our database for station/object K1ADK-1. If no packets are shown the sender has not sent any weather packets the latest 10 day(s).
| Time | Temp. | Humidity | Pressure | Rain* | Wind** | Luminosity | Snow |
|---|---|---|---|---|---|---|---|
| 1777304757 | 16.11° C | 42% | 1024.5 hPa | 0 mm | - | 778 W/m² | - |
| 1777296337 | 12.78° C | 61% | 1023.9 hPa | 0 mm | - | 503 W/m² | - |
| 1777295717 | 12.22° C | 64% | 1023.8 hPa | 0 mm | - | 479 W/m² | - |
| 1777290917 | 8.33° C | 81% | 1023.1 hPa | 0 mm | - | 41 W/m² | - |
| 1777290317 | 8.33° C | 83% | 1023.1 hPa | 0 mm | - | 62 W/m² | - |
| 1777289717 | 7.78° C | 88% | 1023.1 hPa | 0 mm | - | 58 W/m² | - |
| 1777285517 | 4.44° C | 88% | 1022.5 hPa | 0 mm | - | 16 W/m² | - |
| 1777283717 | 5° C | 88% | 1022.6 hPa | 0 mm | - | 0 W/m² | - |
| 1777283117 | 5.56° C | 88% | 1022.7 hPa | 0 mm | - | 0 W/m² | - |
| 1777281917 | 5.56° C | 88% | 1022.6 hPa | 0 mm | - | 0 W/m² | - |
| 1777274116 | 6.67° C | 88% | 1021.9 hPa | 0 mm | - | 0 W/m² | - |
| 1777269956 | 6.11° C | 89% | 1021.8 hPa | 0 mm | - | 0 W/m² | - |
| 1777265736 | 5.56° C | 86% | 1021.9 hPa | 0 mm | - | 0 W/m² | - |
| 1777257356 | 6.67° C | 80% | 1021.6 hPa | 0 mm | - | 0 W/m² | - |
| 1777251316 | 8.89° C | 72% | 1021.5 hPa | 0 mm | - | 0 W/m² | - |
| 1777245316 | 12.22° C | 57% | 1020.4 hPa | 0 mm | - | 25 W/m² | - |
| 1777242936 | 13.33° C | 54% | 1020.1 hPa | 0 mm | - | 58 W/m² | - |
| 1777241715 | 13.33° C | 54% | 1020.1 hPa | 0 mm | - | 84 W/m² | - |
| 1777238716 | 13.89° C | 52% | 1020 hPa | 0 mm | - | 377 W/m² | - |
| 1777237516 | 13.89° C | 55% | 1020 hPa | 0 mm | - | 436 W/m² | - |
| 1777235755 | 13.33° C | 57% | 1019.9 hPa | 0 mm | - | 516 W/m² | - |
| 1777231515 | 11.67° C | 60% | 1020.2 hPa | 0 mm | - | 676 W/m² | - |
| 1777229715 | 11.67° C | 63% | 1020.3 hPa | 0 mm | - | 734 W/m² | - |
| 1777229115 | 11.11° C | 64% | 1020.3 hPa | 0 mm | - | 648 W/m² | - |
| 1777219517 | 8.89° C | 75% | 1020.2 hPa | 0 mm | - | 525 W/m² | - |
* Rain latest hour (hover to see other rain measurements)
** Current wind speed in m/s (hover to see current wind gust speed)